Flight Track Log - Related Links

Times and Time Zones

All times are in EDT time to prevent confusion due to time zone crossing. See the N2024V flight status page for this flight to view local times or setup timezone preferences in your user account.

Time Position Orientation Groundspeed Altitude Reporting Facility
EDT Latitude Longitude Course Direction KTS MPH feet Rate Location/Type
Mon 10:42:00 AM 38.7380 -80.2500 180° South  Level FlightAware Approximate
Mon 10:43:00 AM 38.6855 -80.2500 180° South  Level FlightAware Approximate
Mon 10:44:00 AM 38.6329 -80.2500 177° South  Level FlightAware Approximate
Mon 10:45:00 AM 38.5805 -80.2462 177° South  Level FlightAware Approximate
Mon 10:46:00 AM 38.5280 -80.2425 177° South  Level FlightAware Approximate
Mon 10:47:00 AM 38.4756 -80.2387 177° South  Level FlightAware Approximate
Mon 10:48:00 AM 38.4231 -80.2350 177° South  Level FlightAware Approximate
Mon 10:49:00 AM 38.3707 -80.2322 178° South  Level FlightAware Approximate
Mon 10:50:00 AM 38.3181 -80.2303 178° South  Level FlightAware Approximate
Mon 10:50:08 AM 38.7619 -80.2697 178° South 144 166 8,100  Level Washington Center
Mon 10:51:00 AM 38.2656 -80.2284 178° South  Level FlightAware Approximate
Mon 10:51:09 AM 38.7117 -80.2744 184° South 144 166 8,100  Level Washington Center
Mon 10:52:00 AM 38.2131 -80.2265 178° South  Level FlightAware Approximate
Mon 10:52:09 AM 38.6678 -80.2742 180° South 149 171 8,100  Level Washington Center
Mon 10:53:00 AM 38.1606 -80.2245 178° South  Level FlightAware Approximate
Mon 10:53:07 AM 38.6242 -80.2714 177° South 149 171 8,100  Level Washington Center
Mon 10:54:00 AM 38.1081 -80.2226 178° South  Level FlightAware Approximate
Mon 10:54:08 AM 38.5847 -80.2717 180° South 149 171 8,100  Level Washington Center
Mon 10:55:00 AM 38.0556 -80.2207 178° South  Level FlightAware Approximate
Mon 10:55:08 AM 38.5428 -80.2717 180° South 154 177 8,100  Level Washington Center
Mon 10:56:07 AM 38.5056 -80.2694 177° South 154 177 8,100  Level Washington Center
Mon 10:57:08 AM 38.4617 -80.2692 180° South 159 183 8,100  Level Washington Center
Mon 10:58:09 AM 38.4200 -80.2667 177° South 159 183 8,100 51 Level Washington Center
Mon 10:59:06 AM 38.3764 -80.2639 177° South 159 183 8,200 51 Climbing Washington Center
Mon 11:00:07 AM 38.3328 -80.2611 177° South 159 183 8,200  Level Washington Center
Mon 11:01:08 AM 38.2908 -80.2611 180° South 159 183 8,200  Level Washington Center
Mon 11:02:08 AM 38.2494 -80.2586 177° South 159 183 8,200  Level Washington Center
Mon 11:03:09 AM 38.2100 -80.2533 174° South 159 183 8,200 50 Level Washington Center
Mon 11:04:07 AM 38.1661 -80.2533 180° South 159 183 8,300  Climbing Washington Center
Mon 11:05:08 AM 38.1225 -80.2506 177° South 159 183 8,200 -49 Descending Washington Center
Mon 11:06:09 AM 38.0767 -80.2450 175° South 159 183 8,200  Level Washington Center
Mon 11:07:07 AM 38.0350 -80.2425 177° South 159 183 8,200  Level Washington Center
Mon 11:08:08 AM 37.9933 -80.2425 180° South 159 183 8,200  Level Washington Center
Mon 11:09:08 AM 37.9497 -80.2400 177° South 159 183 8,200  Level Washington Center
Mon 11:10:09 AM 37.9122 -80.2375 177° South 159 183 8,200  Level Washington Center
Mon 11:11:07 AM 37.8706 -80.2350 177° South 159 183 8,200  Level Washington Center
Mon 11:12:08 AM 37.8269 -80.2297 175° South 159 183 8,200  Level Washington Center
Mon 11:13:09 AM 37.7814 -80.2269 177° South 159 183 8,200 50 Level Washington Center
Mon 11:14:09 AM 37.7397 -80.2217 174° South 159 183 8,300  Climbing Washington Center
Mon 11:15:06 AM 37.6981 -80.2192 177° South 159 183 8,200  Descending Washington Center
Mon 11:16:07 AM 37.6564 -80.2167 177° South 159 183 8,300  Climbing Washington Center
Mon 11:17:08 AM 37.6214 -80.2092 170° South 159 183 8,200 -49 Descending Washington Center
Mon 11:18:09 AM 37.5797 -80.2067 177° South 159 183 8,200  Level Washington Center
Mon 11:19:06 AM 37.5361 -80.2039 177° South 159 183 8,200  Level Washington Center
Mon 11:20:07 AM 37.4925 -80.1986 175° South 159 183 8,200  Level Washington Center
Mon 11:21:09 AM 37.4508 -80.1961 177° South 159 183 8,200 -33 Level Washington Center
Mon 11:23:07 AM 37.3675 -80.1886 176° South 159 183 8,100 -34 Descending Washington Center
Mon 11:24:08 AM 37.3303 -80.1864 177° South 159 183 8,100  Level Washington Center
Mon 11:25:09 AM 37.2886 -80.1839 177° South 159 183 8,100  Level Washington Center
Mon 11:27:00 AM 37.2181 -80.1817 179° South  Level FlightAware Approximate
Mon 11:34:00 AM 36.9513 -80.1734 179° South  Level FlightAware Approximate
Mon 11:35:00 AM 36.9132 -80.1722 179° South  Level FlightAware Approximate
Mon 11:36:00 AM 36.8751 -80.1710 179° South  Level FlightAware Approximate
Mon 11:37:00 AM 36.8370 -80.1699 179° South  Level FlightAware Approximate
Mon 11:38:00 AM 36.7989 -80.1687 179° South  Level FlightAware Approximate
Mon 11:39:00 AM 36.7608 -80.1675 179° South  Level FlightAware Approximate
Mon 11:40:00 AM 36.7227 -80.1662 178° South  Level FlightAware Approximate
Mon 11:41:00 AM 36.6846 -80.1645 178° South  Level FlightAware Approximate
Mon 11:42:00 AM 36.6465 -80.1629 178° South  Level FlightAware Approximate
Mon 11:43:00 AM 36.6084 -80.1612 178° South  Level FlightAware Approximate
Mon 11:44:00 AM 36.5703 -80.1595 178° South  Level FlightAware Approximate
Mon 11:45:00 AM 36.5322 -80.1579 178° South  Level FlightAware Approximate
Mon 11:46:00 AM 36.4941 -80.1562 178° South  Level FlightAware Approximate
Mon 11:47:00 AM 36.4560 -80.1545 178° South  Level FlightAware Approximate
Mon 11:48:00 AM 36.4179 -80.1529 178° South  Level FlightAware Approximate
Mon 11:49:00 AM 36.3798 -80.1512 178° South  Level FlightAware Approximate
Mon 11:50:00 AM 36.3417 -80.1496 178° South  Level FlightAware Approximate
Mon 11:51:00 AM 36.3036 -80.1479 178° South  Level FlightAware Approximate
Mon 11:52:00 AM 36.2655 -80.1462 178° South  Level FlightAware Approximate
Mon 11:53:00 AM 36.2274 -80.1446 178° South  Level FlightAware Approximate
Mon 11:54:00 AM 36.1893 -80.1430 178° South  Level FlightAware Approximate
Mon 11:55:00 AM 36.1512 -80.1413 178° South  Level FlightAware Approximate
Mon 11:56:00 AM 36.1131 -80.1396 178° South  Level FlightAware Approximate
Mon 11:57:00 AM 36.0750 -80.1380 178° South  Level FlightAware Approximate
Mon 11:58:00 AM 36.0369 -80.1364 178° South  Level FlightAware Approximate
Mon 11:59:00 AM 35.9988 -80.1347 178° South  Level FlightAware Approximate
Mon 12:00:00 PM 35.9607 -80.1330 177° South  Level FlightAware Approximate
Mon 12:01:00 PM 35.9226 -80.1307 177° South  Level FlightAware Approximate
Mon 12:02:00 PM 35.8845 -80.1285 177° South  Level FlightAware Approximate
Mon 12:02:47 PM 35.6933 -80.1239 177° South 145 167 8,100  Level Atlanta Center
Mon 12:03:00 PM 35.8465 -80.1262 177° South  Level FlightAware Approximate
Mon 12:04:00 PM 35.6470 -80.1219 178° South  Level Estimated
Mon 12:04:00 PM 35.8084 -80.1240 177° South  Level FlightAware Approximate
Mon 12:04:43 PM 35.6158 -80.1125 178° South 145 167 8,200  Level Atlanta Center
Mon 12:05:00 PM 35.7703 -80.1217 177° South  Level FlightAware Approximate
Mon 12:05:44 PM 35.5761 -80.1092 176° South 144 166 8,100  Level Atlanta Center
Mon 12:06:00 PM 35.7322 -80.1195 177° South  Level FlightAware Approximate
Mon 12:06:45 PM 35.5322 -80.1061 177° South 142 163 8,200  Level Atlanta Center
Mon 12:07:00 PM 35.6941 -80.1172 177° South  Level FlightAware Approximate
Mon 12:07:46 PM 35.4925 -80.1031 176° South 144 166 8,200  Level Atlanta Center
Mon 12:08:00 PM 35.6561 -80.1150 177° South  Level FlightAware Approximate
Mon 12:08:41 PM 35.4569 -80.0997 176° South 142 163 8,200  Level Atlanta Center
Mon 12:09:42 PM 35.4169 -80.0939 173° South 144 166 8,200  Level Atlanta Center
Mon 12:10:42 PM 35.3772 -80.0906 176° South 142 163 8,200  Level Atlanta Center
Mon 12:12:00 PM 35.3277 -80.0898 179° South  Level FlightAware Approximate
Mon 12:19:00 PM 35.0608 -80.0854 179° South  Level FlightAware Approximate
Mon 12:20:00 PM 35.0227 -80.0848 179° South  Level FlightAware Approximate
Mon 12:21:00 PM 34.9846 -80.0842 179° South  Level FlightAware Approximate
Mon 12:22:00 PM 34.9465 -80.0835 179° South  Level FlightAware Approximate
Mon 12:23:00 PM 34.9083 -80.0833 180° South  Level FlightAware Approximate
Mon 12:24:00 PM 34.8702 -80.0833 180° South  Level FlightAware Approximate
Mon 12:25:00 PM 34.8321 -80.0824 178° South  Level FlightAware Approximate
Mon 12:26:00 PM 34.7940 -80.0804 178° South  Level FlightAware Approximate
Mon 12:27:00 PM 34.7559 -80.0783 178° South  Level FlightAware Approximate
Mon 12:28:00 PM 34.7178 -80.0763 178° South  Level FlightAware Approximate
Mon 12:29:00 PM 34.6797 -80.0743 178° South  Level FlightAware Approximate
Mon 12:30:00 PM 34.6416 -80.0723 178° South  Level FlightAware Approximate
Mon 12:31:00 PM 34.6035 -80.0703 178° South  Level FlightAware Approximate
Mon 12:32:00 PM 34.5654 -80.0683 178° South  Level FlightAware Approximate
Mon 12:33:00 PM 34.5274 -80.0663 178° South  Level FlightAware Approximate
Mon 12:34:00 PM 34.4893 -80.0643 178° South  Level FlightAware Approximate
Mon 12:35:00 PM 34.4512 -80.0623 178° South  Level FlightAware Approximate
Mon 12:36:00 PM 34.4131 -80.0603 178° South  Level FlightAware Approximate
Mon 12:37:00 PM 34.3750 -80.0583 178° South  Level FlightAware Approximate
Mon 12:38:00 PM 34.3369 -80.0563 178° South  Level FlightAware Approximate
Mon 12:39:00 PM 34.2988 -80.0543 178° South  Level FlightAware Approximate
Mon 12:40:00 PM 34.2607 -80.0523 178° South  Level FlightAware Approximate
Mon 12:41:00 PM 34.2226 -80.0503 178° South  Level FlightAware Approximate
Mon 12:42:00 PM 34.1846 -80.0487 178° South  Level FlightAware Approximate
Mon 12:43:00 PM 34.1465 -80.0472 178° South  Level FlightAware Approximate
Mon 12:44:00 PM 34.1084 -80.0456 178° South  Level FlightAware Approximate
Mon 12:45:00 PM 34.0703 -80.0441 178° South  Level FlightAware Approximate
Mon 12:46:00 PM 34.0322 -80.0426 178° South  Level FlightAware Approximate
Mon 12:47:00 PM 33.9941 -80.0411 178° South  Level FlightAware Approximate
Mon 12:48:00 PM 33.9560 -80.0396 178° South  Level FlightAware Approximate
Mon 12:49:00 PM 33.9179 -80.0380 178° South  Level FlightAware Approximate
Mon 12:50:00 PM 33.8798 -80.0365 178° South  Level FlightAware Approximate
Mon 12:51:00 PM 33.8417 -80.0350 178° South  Level FlightAware Approximate
Mon 12:52:00 PM 33.8036 -80.0335 178° South  Level FlightAware Approximate
Mon 12:53:00 PM 33.7655 -80.0319 178° South  Level FlightAware Approximate
Mon 12:54:00 PM 33.7274 -80.0303 178° South  Level FlightAware Approximate
Mon 12:55:00 PM 33.6893 -80.0287 178° South  Level FlightAware Approximate
Mon 12:56:00 PM 33.6512 -80.0271 178° South  Level FlightAware Approximate
Mon 12:57:00 PM 33.6131 -80.0255 178° South  Level FlightAware Approximate
Mon 12:58:00 PM 33.5750 -80.0239 178° South  Level FlightAware Approximate
Mon 12:59:00 PM 33.5369 -80.0223 178° South  Level FlightAware Approximate
Mon 01:00:00 PM 33.4988 -80.0208 178° South  Level FlightAware Approximate
Mon 01:01:00 PM 33.4607 -80.0192 178° South  Level FlightAware Approximate
Mon 01:02:00 PM 33.4220 -80.0176 178° South  Level FlightAware Approximate
Mon 01:03:00 PM 33.3834 -80.0161 178° South  Level FlightAware Approximate
Mon 01:04:00 PM 33.3447 -80.0148 178° South  Level FlightAware Approximate
Mon 01:05:00 PM 33.3060 -80.0135 178° South  Level FlightAware Approximate
Mon 01:06:00 PM 33.2674 -80.0122 178° South  Level FlightAware Approximate
Mon 01:07:00 PM 33.2287 -80.0109 178° South  Level FlightAware Approximate
Mon 01:08:00 PM 33.1901 -80.0097 178° South  Level FlightAware Approximate
Mon 01:09:00 PM 33.1514 -80.0084 178° South  Level FlightAware Approximate
Mon 01:10:00 PM 33.1127 -80.0071 178° South  Level FlightAware Approximate
Mon 01:11:00 PM 33.0741 -80.0058 178° South  Level FlightAware Approximate
Mon 01:12:00 PM 33.0354 -80.0045 178° South  Level FlightAware Approximate
Mon 01:13:00 PM 32.9968 -80.0032 178° South  Level FlightAware Approximate
Mon 01:14:00 PM 32.9581 -80.0019 178° South  Level FlightAware Approximate
Mon 01:15:00 PM 32.9194 -80.0006 178° South  Level FlightAware Approximate
Mon 01:16:00 PM 32.8808 -80.0000 180° South  Level FlightAware Approximate
Mon 01:17:00 PM 32.8421 -80.0000 180° South  Level FlightAware Approximate
Mon 01:18:00 PM 32.8034 -80.0000 180° South  Level FlightAware Approximate
Mon 01:19:00 PM 32.7647 -80.0000 180° South  Level FlightAware Approximate
Mon 01:20:00 PM 32.7261 -80.0000 180° South  Level FlightAware Approximate
Mon 01:21:00 PM 32.7000 -80.0000 180° South  Level FlightAware Approximate
Mon 01:22:00 PM 32.7010 -80.0033 180° South  Level Estimated
Mon 01:23:00 PM 32.7000 -80.0000 180° South  Level FlightAware Approximate
Mon 01:24:00 PM 32.7010 -80.0033 180° South  Level Estimated
Mon 01:25:00 PM 32.7000 -80.0000 180° South  Level FlightAware Approximate
Mon 01:26:00 PM 32.7010 -80.0033 180° South  Level Estimated
Mon 01:27:00 PM 32.7000 -80.0000 180° South  Level FlightAware Approximate
Mon 01:28:00 PM 32.7010 -80.0033 180° South  Level Estimated
Mon 01:29:00 PM 32.7000 -80.0000 180° South  Level FlightAware Approximate
Mon 01:30:00 PM 32.7010 -80.0033 180° South  Level Estimated
Mon 01:31:00 PM 32.7000 -80.0000 180° South  Level FlightAware Approximate
Mon 01:32:00 PM 32.7010 -80.0033 180° South  Level Estimated
Mon 01:33:00 PM 32.7000 -80.0000 180° South  Level FlightAware Approximate
Mon 01:34:00 PM 32.7010 -80.0033 180° South  Level Estimated
Mon 01:35:00 PM 32.7000 -80.0000 180° South  Level FlightAware Approximate

Login

Don't have an account? Register now (free) for customized features, flight alerts, and more!